createdAt,value
2023-05-11T00:00:06.323Z,23.27
2023-05-11T00:02:34.518Z,22.48
2023-05-11T00:05:03.208Z,25.13
2023-05-11T00:07:31.524Z,24.58
2023-05-11T00:09:59.902Z,25.10
2023-05-11T00:12:28.118Z,27.17
2023-05-11T00:14:56.372Z,26.80
2023-05-11T00:17:24.619Z,24.77
2023-05-11T00:19:52.890Z,22.63
2023-05-11T00:22:21.268Z,21.85
2023-05-11T00:24:49.447Z,19.55
2023-05-11T00:27:17.820Z,20.35
2023-05-11T00:29:46.177Z,20.73
2023-05-11T00:32:14.698Z,20.90
2023-05-11T00:34:43.429Z,20.27
2023-05-11T00:37:11.820Z,19.27
2023-05-11T00:39:40.197Z,19.98
2023-05-11T00:42:08.719Z,19.90
2023-05-11T00:44:36.863Z,18.00
2023-05-11T00:47:05.361Z,19.05
2023-05-11T00:49:33.928Z,17.25
2023-05-11T00:52:02.471Z,17.50
2023-05-11T00:54:31.589Z,18.20
2023-05-11T00:57:00.994Z,18.42
2023-05-11T00:59:29.320Z,16.88
2023-05-11T01:01:58.534Z,14.95
2023-05-11T01:04:27.302Z,18.23
2023-05-11T01:07:17.758Z,15.77
2023-05-11T01:10:04.724Z,16.38
2023-05-11T01:13:08.888Z,19.10
2023-05-11T01:15:53.711Z,23.02
2023-05-11T01:18:30.677Z,21.90
2023-05-11T01:21:04.669Z,23.48
2023-05-11T01:24:00.348Z,23.30
2023-05-11T01:26:46.563Z,23.88
2023-05-11T01:29:53.438Z,23.83
2023-05-11T01:32:24.944Z,23.92
2023-05-11T01:35:03.282Z,22.42
2023-05-11T01:37:33.942Z,23.02
2023-05-11T01:40:19.286Z,24.30
2023-05-11T01:42:50.923Z,25.00
2023-05-11T01:45:21.206Z,23.73
2023-05-11T01:47:51.795Z,22.33
2023-05-11T01:50:21.738Z,22.25
2023-05-11T01:52:52.281Z,24.88
2023-05-11T01:55:24.044Z,25.17
2023-05-11T01:57:54.889Z,24.92
2023-05-11T02:00:24.404Z,24.80
2023-05-11T02:02:55.177Z,22.98
2023-05-11T02:05:25.096Z,22.65
2023-05-11T02:07:56.311Z,21.92
2023-05-11T02:10:26.974Z,20.58
2023-05-11T02:12:56.296Z,20.83
2023-05-11T02:15:27.333Z,21.25
2023-05-11T02:17:56.609Z,20.48
2023-05-11T02:20:25.796Z,19.65
2023-05-11T02:22:55.370Z,19.88
2023-05-11T02:25:24.065Z,19.85
2023-05-11T02:27:53.047Z,19.73
2023-05-11T02:30:21.584Z,18.02
2023-05-11T02:32:54.469Z,19.30
2023-05-11T02:35:29.954Z,19.83
2023-05-11T02:38:01.984Z,20.73
2023-05-11T02:40:36.292Z,20.88
2023-05-11T02:43:19.567Z,20.10
2023-05-11T02:45:59.672Z,20.67
2023-05-11T02:48:32.076Z,20.75
2023-05-11T02:51:02.939Z,20.42
2023-05-11T02:53:38.615Z,18.48
2023-05-11T02:56:07.254Z,17.30
2023-05-11T02:58:36.828Z,17.63
2023-05-11T03:01:27.381Z,18.30
2023-05-11T03:03:58.297Z,17.35
2023-05-11T03:06:31.414Z,18.70
2023-05-11T03:09:03.090Z,17.88
2023-05-11T03:11:33.907Z,21.47
2023-05-11T03:14:03.904Z,22.75
2023-05-11T03:16:32.932Z,20.67
2023-05-11T03:19:06.311Z,22.73
2023-05-11T03:21:36.617Z,22.08
2023-05-11T03:24:07.564Z,20.48
2023-05-11T03:26:37.001Z,21.80
2023-05-11T03:29:08.255Z,19.60
2023-05-11T03:31:36.632Z,21.92
2023-05-11T03:34:05.161Z,21.35
2023-05-11T03:36:40.353Z,26.73
2023-05-11T03:39:11.860Z,29.07
2023-05-11T03:41:41.116Z,30.30
2023-05-11T03:44:13.303Z,29.35
2023-05-11T03:49:14.314Z,29.90
2023-05-11T03:51:44.471Z,32.85
2023-05-11T03:54:13.159Z,33.70
2023-05-11T03:56:41.852Z,34.42
2023-05-11T03:59:15.035Z,39.88
2023-05-11T04:01:44.033Z,52.38
2023-05-11T04:04:12.411Z,41.55
2023-05-11T04:06:40.679Z,40.65
2023-05-11T04:09:15.398Z,31.67
2023-05-11T04:11:43.654Z,32.78
2023-05-11T04:14:11.832Z,30.80
2023-05-11T04:16:40.273Z,30.00
2023-05-11T04:19:08.498Z,30.83
2023-05-11T04:21:36.913Z,28.33
2023-05-11T04:24:05.598Z,28.33
2023-05-11T04:26:33.739Z,27.35
2023-05-11T04:29:02.025Z,25.40
2023-05-11T04:31:30.210Z,26.55
2023-05-11T04:33:59.027Z,26.35
2023-05-11T04:36:27.985Z,26.67
2023-05-11T04:38:56.247Z,24.10
2023-05-11T04:41:24.561Z,23.90
2023-05-11T04:43:54.070Z,24.52
2023-05-11T04:46:22.419Z,25.48
2023-05-11T04:48:50.908Z,27.65
2023-05-11T04:51:19.325Z,26.58
2023-05-11T04:53:47.624Z,26.48
2023-05-11T04:56:15.910Z,25.08
2023-05-11T04:58:44.121Z,23.00
2023-05-11T05:01:12.627Z,24.17
2023-05-11T05:03:40.946Z,24.88
2023-05-11T05:06:09.800Z,22.23
2023-05-11T05:08:38.250Z,21.15
2023-05-11T05:11:06.855Z,20.17
2023-05-11T05:13:35.276Z,20.33
2023-05-11T05:16:03.557Z,20.95
2023-05-11T05:18:31.785Z,20.33
2023-05-11T05:21:00.499Z,18.70
2023-05-11T05:23:28.795Z,17.45
2023-05-11T05:25:56.979Z,15.82
2023-05-11T05:28:25.220Z,20.25
2023-05-11T05:30:53.633Z,21.60
2023-05-11T05:33:22.667Z,22.95
2023-05-11T05:35:50.979Z,22.05
2023-05-11T05:38:19.086Z,20.60
2023-05-11T05:40:47.895Z,21.40
2023-05-11T05:43:17.021Z,21.75
2023-05-11T05:45:45.198Z,22.67
2023-05-11T05:48:13.808Z,20.52
2023-05-11T05:50:41.975Z,24.58
2023-05-11T05:53:10.433Z,23.55
2023-05-11T05:55:38.923Z,21.58
2023-05-11T05:58:07.170Z,21.40
2023-05-11T06:00:36.695Z,18.90
2023-05-11T06:03:09.245Z,18.55
2023-05-11T06:05:37.912Z,16.58
2023-05-11T06:08:10.585Z,17.45
2023-05-11T06:10:40.749Z,16.08
2023-05-11T06:13:10.703Z,16.95
2023-05-11T06:15:43.329Z,16.77
2023-05-11T06:18:25.911Z,16.50
2023-05-11T06:20:54.548Z,17.02
2023-05-11T06:23:23.738Z,15.57
2023-05-11T06:25:52.103Z,14.95
2023-05-11T06:28:21.245Z,14.75
2023-05-11T06:30:49.596Z,15.02
2023-05-11T06:33:18.127Z,15.38
2023-05-11T06:35:46.948Z,15.38
2023-05-11T06:38:16.163Z,15.90
2023-05-11T06:40:44.367Z,13.98
2023-05-11T06:43:12.798Z,14.02
2023-05-11T06:45:49.418Z,13.77
2023-05-11T06:48:18.540Z,15.25
2023-05-11T06:50:46.665Z,13.07
2023-05-11T06:53:15.067Z,12.63
2023-05-11T06:55:43.192Z,12.38
2023-05-11T06:58:11.378Z,15.00
2023-05-11T07:00:39.997Z,12.98
2023-05-11T07:03:08.324Z,14.82
2023-05-11T07:05:37.276Z,13.82
2023-05-11T07:08:05.872Z,13.90
2023-05-11T07:10:34.341Z,16.85
2023-05-11T07:13:03.479Z,15.60
2023-05-11T07:15:32.511Z,16.83
2023-05-11T07:18:01.445Z,16.50
2023-05-11T07:20:29.898Z,17.80
2023-05-11T07:22:59.640Z,16.90
2023-05-11T07:25:28.068Z,14.57
2023-05-11T07:27:56.853Z,16.70
2023-05-11T07:30:25.751Z,15.32
2023-05-11T07:32:54.166Z,18.15
2023-05-11T07:35:24.016Z,15.98
2023-05-11T07:37:52.627Z,16.13
2023-05-11T07:40:21.738Z,17.73
2023-05-11T07:42:50.319Z,17.42
2023-05-11T07:45:19.276Z,15.15
2023-05-11T07:47:48.107Z,13.60
2023-05-11T07:50:17.242Z,12.30
2023-05-11T07:52:46.508Z,12.45
2023-05-11T07:55:15.257Z,13.60
2023-05-11T07:57:43.414Z,13.25
2023-05-11T08:00:12.804Z,14.48
2023-05-11T08:02:41.186Z,15.63
2023-05-11T08:05:09.760Z,15.07
2023-05-11T08:07:39.618Z,15.50
2023-05-11T08:10:10.007Z,17.05
2023-05-11T08:12:38.684Z,15.25
2023-05-11T08:15:07.517Z,15.45
2023-05-11T08:17:35.814Z,14.80
2023-05-11T08:20:05.613Z,14.25
2023-05-11T08:22:33.766Z,14.50
2023-05-11T08:25:02.125Z,14.50
2023-05-11T08:27:30.191Z,13.23
2023-05-11T08:29:58.777Z,13.85
2023-05-11T08:32:27.148Z,13.10
2023-05-11T08:34:55.738Z,13.10
2023-05-11T08:37:25.909Z,22.45
2023-05-11T08:39:54.129Z,17.23
2023-05-11T08:42:28.501Z,22.20
2023-05-11T08:44:57.457Z,18.17
2023-05-11T08:47:25.856Z,17.38
2023-05-11T08:49:54.676Z,16.40
2023-05-11T08:52:22.980Z,16.98
2023-05-11T08:54:51.464Z,15.10
2023-05-11T08:57:20.558Z,16.00
2023-05-11T08:59:49.927Z,16.42
2023-05-11T09:02:19.834Z,18.58
2023-05-11T09:04:50.272Z,22.00
2023-05-11T09:07:20.136Z,18.77
2023-05-11T09:09:48.443Z,20.33
2023-05-11T09:12:17.765Z,19.83
2023-05-11T09:14:46.399Z,17.35
2023-05-11T09:17:14.944Z,16.88
2023-05-11T09:20:00.270Z,17.90
2023-05-11T09:22:31.464Z,16.42
2023-05-11T09:25:03.092Z,15.35
2023-05-11T09:27:31.454Z,13.23
2023-05-11T09:30:31.180Z,13.57
2023-05-11T09:33:02.966Z,14.00
2023-05-11T09:35:33.164Z,14.02
2023-05-11T09:38:07.428Z,12.82
2023-05-11T09:40:40.165Z,11.40
2023-05-11T09:43:28.960Z,11.23
2023-05-11T09:45:59.149Z,11.40
2023-05-11T09:48:30.775Z,11.65
2023-05-11T09:51:07.689Z,12.82
2023-05-11T09:53:43.451Z,14.75
2023-05-11T09:56:13.144Z,13.40
2023-05-11T09:58:47.155Z,10.75
2023-05-11T10:01:16.894Z,11.52
2023-05-11T10:03:49.425Z,19.20
2023-05-11T10:06:20.075Z,19.52
2023-05-11T10:08:49.001Z,9.65
2023-05-11T10:11:17.278Z,8.55
2023-05-11T10:13:45.675Z,9.80
2023-05-11T10:16:16.723Z,11.07
2023-05-11T10:18:46.288Z,14.77
2023-05-11T10:21:17.158Z,15.48
2023-05-11T10:23:45.687Z,19.15
2023-05-11T10:26:14.682Z,16.02
2023-05-11T10:28:43.316Z,14.57
2023-05-11T10:31:12.261Z,17.58
2023-05-11T10:33:42.313Z,12.68
2023-05-11T10:36:12.003Z,31.05
2023-05-11T10:38:40.424Z,18.02
2023-05-11T10:41:26.437Z,8.82
2023-05-11T10:44:31.446Z,8.90
2023-05-11T10:47:09.015Z,16.33
2023-05-11T10:50:13.826Z,9.02
2023-05-11T10:53:10.160Z,19.85
2023-05-11T10:55:38.523Z,6.78
2023-05-11T10:58:08.275Z,12.13
2023-05-11T11:01:15.352Z,17.42
2023-05-11T11:03:55.777Z,9.45
2023-05-11T11:06:24.622Z,6.85
2023-05-11T11:09:04.640Z,6.57
2023-05-11T11:11:48.669Z,6.05
2023-05-11T11:14:17.959Z,5.68
2023-05-11T11:17:12.421Z,6.20
2023-05-11T11:19:40.653Z,4.10
2023-05-11T11:22:37.476Z,5.18
2023-05-11T11:25:07.937Z,7.90
2023-05-11T11:27:42.357Z,5.88
2023-05-11T11:30:29.232Z,8.35
2023-05-11T11:33:17.364Z,6.25
2023-05-11T11:35:46.485Z,9.82
2023-05-11T11:38:20.157Z,7.35
2023-05-11T11:40:51.834Z,7.55
2023-05-11T11:43:29.418Z,8.70
2023-05-11T11:46:02.706Z,6.55
2023-05-11T11:48:40.961Z,7.00
2023-05-11T11:51:12.713Z,6.90
2023-05-11T11:53:41.034Z,9.27
2023-05-11T11:56:29.136Z,6.35
2023-05-11T11:58:57.955Z,7.28
2023-05-11T12:01:31.170Z,6.53
2023-05-11T12:04:05.941Z,6.97
2023-05-11T12:06:41.882Z,6.88
2023-05-11T12:09:10.394Z,6.15
2023-05-11T12:11:40.080Z,6.30
2023-05-11T12:14:11.374Z,10.63
2023-05-11T12:16:39.781Z,7.30
2023-05-11T12:19:08.100Z,6.13
2023-05-11T12:21:36.342Z,6.45
2023-05-11T12:24:06.183Z,6.53
2023-05-11T12:26:35.872Z,6.72
2023-05-11T12:29:14.980Z,4.72
2023-05-11T12:31:45.796Z,5.10
2023-05-11T12:34:22.056Z,5.90
2023-05-11T12:36:52.802Z,5.82
2023-05-11T12:39:23.148Z,5.70
2023-05-11T12:41:53.638Z,6.15
2023-05-11T12:44:23.810Z,7.93
2023-05-11T12:46:56.012Z,6.50
2023-05-11T12:49:26.919Z,5.25
2023-05-11T12:52:08.302Z,7.90
2023-05-11T12:54:38.487Z,6.10
2023-05-11T12:57:26.874Z,4.57
2023-05-11T13:00:14.839Z,4.80
2023-05-11T13:02:48.194Z,4.85
2023-05-11T13:05:17.439Z,4.13
2023-05-11T13:07:46.187Z,7.10
2023-05-11T13:10:14.552Z,5.63
2023-05-11T13:12:53.330Z,5.93
2023-05-11T13:15:23.181Z,6.45
2023-05-11T13:18:02.581Z,7.05
2023-05-11T13:20:35.105Z,5.78
2023-05-11T13:23:08.736Z,13.40
2023-05-11T13:25:53.754Z,7.25
2023-05-11T13:28:24.486Z,4.57
2023-05-11T13:31:00.036Z,4.18
2023-05-11T13:33:28.845Z,4.40
2023-05-11T13:35:57.052Z,8.82
2023-05-11T13:38:25.234Z,9.07
2023-05-11T13:40:53.523Z,9.27
2023-05-11T13:43:21.708Z,5.38
2023-05-11T13:45:50.377Z,4.22
2023-05-11T13:48:19.621Z,4.40
2023-05-11T13:50:47.878Z,4.43
2023-05-11T13:53:16.076Z,6.40
2023-05-11T13:55:44.293Z,4.07
2023-05-11T13:58:12.615Z,4.00
2023-05-11T14:00:40.754Z,6.20
2023-05-11T14:03:09.052Z,9.95
2023-05-11T14:05:39.212Z,6.07
2023-05-11T14:08:07.841Z,5.93
2023-05-11T14:10:36.082Z,5.88
2023-05-11T14:13:04.273Z,4.18
2023-05-11T14:15:35.513Z,4.10
2023-05-11T14:18:04.070Z,14.67
2023-05-11T14:20:32.736Z,4.93
2023-05-11T14:23:01.003Z,5.97
2023-05-11T14:25:29.227Z,4.18
2023-05-11T14:28:01.583Z,9.38
2023-05-11T14:30:29.776Z,4.93
2023-05-11T14:32:58.064Z,4.32
2023-05-11T14:35:26.357Z,4.78
2023-05-11T14:37:54.630Z,4.50
2023-05-11T14:40:22.972Z,4.25
2023-05-11T14:42:51.079Z,8.93
2023-05-11T14:45:20.851Z,12.10
2023-05-11T14:47:49.450Z,7.63
2023-05-11T14:50:17.696Z,7.60
2023-05-11T14:52:46.143Z,6.70
2023-05-11T14:55:14.354Z,6.68
2023-05-11T14:57:43.347Z,7.03
2023-05-11T15:00:12.541Z,6.07
2023-05-11T15:02:40.763Z,4.90
2023-05-11T15:05:09.601Z,5.63
2023-05-11T15:07:38.824Z,4.72
2023-05-11T15:10:08.362Z,5.55
2023-05-11T15:12:36.712Z,7.60
2023-05-11T15:15:05.260Z,4.78
2023-05-11T15:17:33.652Z,7.55
2023-05-11T15:20:02.265Z,10.05
2023-05-11T15:22:30.474Z,6.75
2023-05-11T15:24:58.645Z,18.02
2023-05-11T15:27:27.994Z,5.10
2023-05-11T15:29:56.182Z,12.63
2023-05-11T15:32:24.278Z,5.97
2023-05-11T15:34:59.442Z,5.75
2023-05-11T15:37:28.746Z,4.28
2023-05-11T15:39:57.017Z,6.22
2023-05-11T15:42:25.390Z,5.95
2023-05-11T15:44:56.376Z,20.97
2023-05-11T15:47:25.201Z,10.38
2023-05-11T15:49:53.438Z,8.02
2023-05-11T15:52:21.700Z,6.45
2023-05-11T15:54:50.046Z,5.53
2023-05-11T15:57:18.276Z,4.85
2023-05-11T15:59:47.238Z,5.47
2023-05-11T16:02:15.622Z,4.30
2023-05-11T16:04:43.865Z,3.58
2023-05-11T16:07:12.059Z,3.50
2023-05-11T16:09:40.375Z,5.32
2023-05-11T16:12:08.706Z,6.05
2023-05-11T16:14:36.794Z,10.35
2023-05-11T16:17:05.276Z,6.95
2023-05-11T16:19:33.597Z,5.03
2023-05-11T16:22:03.396Z,5.10
2023-05-11T16:24:34.072Z,3.65
2023-05-11T16:27:02.883Z,4.40
2023-05-11T16:29:37.190Z,3.67
2023-05-11T16:32:05.621Z,4.10
2023-05-11T16:34:33.896Z,4.63
2023-05-11T16:37:02.145Z,4.82
2023-05-11T16:39:30.289Z,4.90
2023-05-11T16:41:58.499Z,5.55
2023-05-11T16:44:26.743Z,4.93
2023-05-11T16:46:55.515Z,4.28
2023-05-11T16:49:24.486Z,9.27
2023-05-11T16:51:52.767Z,4.82
2023-05-11T16:54:21.418Z,3.58
2023-05-11T16:56:49.861Z,3.88
2023-05-11T16:59:18.034Z,4.88
2023-05-11T17:01:46.684Z,4.38
2023-05-11T17:04:15.134Z,5.22
2023-05-11T17:06:43.662Z,4.60
2023-05-11T17:09:11.930Z,5.20
2023-05-11T17:11:40.195Z,4.60
2023-05-11T17:14:08.471Z,8.18
2023-05-11T17:16:37.909Z,8.75
2023-05-11T17:19:06.083Z,7.40
2023-05-11T17:21:34.421Z,7.32
2023-05-11T17:24:02.627Z,5.50
2023-05-11T17:26:39.619Z,7.00
2023-05-11T17:29:16.178Z,10.30
2023-05-11T17:31:44.726Z,8.27
2023-05-11T17:34:13.098Z,8.52
2023-05-11T17:36:41.553Z,7.65
2023-05-11T17:39:10.231Z,5.63
2023-05-11T17:41:38.796Z,13.38
2023-05-11T17:44:07.240Z,6.28
2023-05-11T17:46:35.878Z,5.72
2023-05-11T17:49:04.210Z,11.32
2023-05-11T17:51:32.557Z,10.27
2023-05-11T17:54:00.744Z,9.82
2023-05-11T17:56:28.968Z,8.77
2023-05-11T17:58:57.157Z,9.93
2023-05-11T18:01:25.686Z,6.88
2023-05-11T18:03:54.288Z,8.75
2023-05-11T18:06:22.713Z,10.15
2023-05-11T18:08:50.906Z,6.57
2023-05-11T18:11:19.216Z,9.32
2023-05-11T18:13:48.087Z,12.23
2023-05-11T18:16:17.452Z,9.35
2023-05-11T18:18:45.846Z,9.23
2023-05-11T18:21:14.292Z,6.43
2023-05-11T18:23:42.522Z,8.65
2023-05-11T18:26:13.109Z,7.55
2023-05-11T18:28:41.322Z,11.63
2023-05-11T18:31:09.655Z,12.13
2023-05-11T18:33:37.883Z,16.50
2023-05-11T18:36:06.762Z,14.45
2023-05-11T18:38:35.089Z,13.30
2023-05-11T18:41:08.214Z,9.40
2023-05-11T18:43:36.440Z,7.53
2023-05-11T18:46:09.069Z,10.50
2023-05-11T18:48:37.862Z,8.45
2023-05-11T18:51:06.551Z,13.45
2023-05-11T18:53:35.124Z,11.60
2023-05-11T18:56:03.357Z,13.90
2023-05-11T18:58:31.686Z,22.02
2023-05-11T19:00:59.881Z,12.20
2023-05-11T19:03:28.427Z,15.32
2023-05-11T19:05:56.951Z,16.73
2023-05-11T19:08:25.237Z,15.50
2023-05-11T19:10:53.390Z,13.57
2023-05-11T19:13:21.647Z,15.32
2023-05-11T19:15:49.975Z,15.35
2023-05-11T19:18:18.409Z,13.50
2023-05-11T19:20:46.845Z,11.82
2023-05-11T19:23:15.006Z,11.07
2023-05-11T19:25:43.301Z,11.30
2023-05-11T19:28:11.631Z,16.35
2023-05-11T19:30:39.769Z,13.07
2023-05-11T19:33:08.202Z,17.00
2023-05-11T19:35:36.467Z,16.67
2023-05-11T19:38:04.896Z,17.08
2023-05-11T19:43:05.140Z,14.85
2023-05-11T19:45:33.362Z,18.33
2023-05-11T19:48:01.885Z,17.50
2023-05-11T19:50:30.246Z,10.35
2023-05-11T19:52:58.539Z,10.65
2023-05-11T19:55:27.044Z,9.90
2023-05-11T19:57:55.459Z,15.15
2023-05-11T20:00:23.643Z,36.05
2023-05-11T20:02:52.848Z,38.83
2023-05-11T20:05:21.460Z,22.58
2023-05-11T20:07:49.860Z,21.13
2023-05-11T20:10:18.217Z,20.15
2023-05-11T20:12:46.878Z,26.33
2023-05-11T20:15:15.232Z,27.00
2023-05-11T20:17:43.834Z,24.27
2023-05-11T20:20:15.359Z,20.30
2023-05-11T20:22:43.642Z,17.58
2023-05-11T20:25:17.902Z,14.38
2023-05-11T20:27:47.395Z,16.65
2023-05-11T20:30:16.364Z,30.45
2023-05-11T20:35:15.978Z,21.57
2023-05-11T20:37:44.255Z,19.00
2023-05-11T20:40:13.153Z,15.25
2023-05-11T20:42:41.337Z,11.60
2023-05-11T20:45:09.934Z,23.05
2023-05-11T20:47:38.279Z,22.58
2023-05-11T20:50:07.499Z,14.02
2023-05-11T20:52:35.833Z,11.00
2023-05-11T20:55:03.983Z,11.98
2023-05-11T20:57:32.157Z,13.13
2023-05-11T21:02:31.436Z,12.27
2023-05-11T21:04:59.838Z,11.10
2023-05-11T21:07:28.899Z,12.23
2023-05-11T21:09:57.211Z,33.13
2023-05-11T21:12:26.027Z,47.92
2023-05-11T21:14:56.218Z,18.35
2023-05-11T21:17:25.320Z,15.10
2023-05-11T21:19:53.901Z,20.83
2023-05-11T21:22:22.232Z,14.85
2023-05-11T21:24:50.396Z,18.10
2023-05-11T21:27:18.673Z,21.20
2023-05-11T21:29:47.125Z,16.13
2023-05-11T21:32:15.367Z,10.70
2023-05-11T21:34:43.974Z,9.50
2023-05-11T21:37:12.209Z,10.18
2023-05-11T21:39:40.856Z,9.20
2023-05-11T21:42:09.155Z,9.15
2023-05-11T21:44:37.494Z,15.10
2023-05-11T21:47:06.291Z,19.15
2023-05-11T21:49:35.152Z,9.05
2023-05-11T21:52:03.686Z,11.80
2023-05-11T21:54:31.967Z,16.33
2023-05-11T21:57:00.257Z,13.93
2023-05-11T21:59:28.708Z,11.85
2023-05-11T22:01:57.131Z,6.78
2023-05-11T22:04:25.485Z,6.03
2023-05-11T22:06:55.550Z,8.25
2023-05-11T22:09:23.882Z,12.25
2023-05-11T22:11:52.089Z,13.50
2023-05-11T22:14:20.803Z,15.93
2023-05-11T22:16:48.957Z,8.60
2023-05-11T22:19:17.989Z,10.48
2023-05-11T22:21:46.071Z,16.17
2023-05-11T22:24:14.321Z,18.92
2023-05-11T22:26:42.669Z,16.95
2023-05-11T22:29:10.842Z,16.17
2023-05-11T22:31:39.176Z,14.50
2023-05-11T22:34:07.445Z,15.45
2023-05-11T22:36:35.944Z,13.32
2023-05-11T22:39:04.500Z,12.73
2023-05-11T22:41:32.840Z,11.32
2023-05-11T22:44:01.191Z,9.98
2023-05-11T22:46:29.558Z,11.52
2023-05-11T22:49:13.217Z,15.45
2023-05-11T22:51:41.526Z,10.82
2023-05-11T22:54:09.978Z,13.75
2023-05-11T22:56:38.872Z,6.88
2023-05-11T22:59:07.220Z,5.20
2023-05-11T23:01:35.546Z,6.50
2023-05-11T23:04:04.029Z,8.48
2023-05-11T23:06:32.318Z,11.13
2023-05-11T23:09:00.609Z,13.05
2023-05-11T23:11:29.089Z,8.05
2023-05-11T23:13:57.453Z,6.80
2023-05-11T23:16:25.685Z,10.90
2023-05-11T23:18:54.093Z,11.88
2023-05-11T23:21:22.412Z,8.32
2023-05-11T23:23:50.933Z,8.95
2023-05-11T23:26:19.008Z,10.27
2023-05-11T23:28:47.353Z,10.60
2023-05-11T23:31:15.596Z,7.88
2023-05-11T23:33:43.964Z,8.88
2023-05-11T23:36:12.076Z,10.80
2023-05-11T23:38:40.278Z,12.35
2023-05-11T23:41:08.637Z,12.90
2023-05-11T23:43:39.932Z,8.02
2023-05-11T23:46:08.466Z,8.07
2023-05-11T23:48:36.695Z,9.55
2023-05-11T23:51:05.060Z,8.50
2023-05-11T23:53:33.285Z,8.13
2023-05-11T23:56:01.736Z,8.27
2023-05-11T23:58:30.038Z,8.45
